Time;durP1;ratioP1;P1;durP2;ratioP2;P2;SDS_P1;SDS_P2;PMS_P1;PMS_P2;Temp;Humidity;BMP_temperature;BMP_pressure;BME280_temperature;BME280_humidity;BME280_pressure;Samples;Min_cycle;Max_cycle;Signal;HPM_P1;HPM_P2
2021/01/04 00:00:49;;;;;;;39.35;20.02;;;;;;;;;;5151050;27;20054;-86
2021/01/04 00:03:45;;;;;;;39.83;21.63;;;;;;;;;;5153003;27;20047;-87
2021/01/04 00:06:30;;;;;;;36.60;20.45;;;;;;;;;;5149837;27;20176;-87
2021/01/04 00:09:05;;;;;;;38.47;20.58;;;;;;;;;;5149378;27;20039;-86
2021/01/04 00:11:39;;;;;;;39.65;20.48;;;;;;;;;;5148328;27;20050;-86
2021/01/04 00:14:14;;;;;;;39.97;21.70;;;;;;;;;;5145464;27;20051;-86
2021/01/04 00:16:49;;;;;;;36.97;20.13;;;;;;;;;;5144507;27;20119;-86
2021/01/04 00:19:19;;;;;;;32.28;18.52;;;;;;;;;;5149027;27;20044;-86
2021/01/04 00:21:52;;;;;;;36.15;20.42;;;;;;;;;;5150957;27;20069;-86
2021/01/04 00:24:25;;;;;;;36.45;19.70;;;;;;;;;;5151543;27;20069;-86
2021/01/04 00:26:58;;;;;;;37.67;19.70;;;;;;;;;;5160429;27;20051;-86
2021/01/04 00:29:24;;;;;;;36.90;20.63;;;;;;;;;;5158404;27;20043;-87
2021/01/04 00:31:57;;;;;;;43.75;22.48;;;;;;;;;;5150093;27;20054;-86
2021/01/04 00:34:25;;;;;;;43.17;21.88;;;;;;;;;;5145794;27;20039;-87
2021/01/04 00:37:32;;;;;;;38.38;21.20;;;;;;;;;;5152675;27;20119;-87
2021/01/04 00:40:04;;;;;;;39.15;20.65;;;;;;;;;;5131717;28;20053;-87
2021/01/04 00:42:36;;;;;;;35.10;20.63;;;;;;;;;;5127846;28;20047;-87
2021/01/04 00:45:09;;;;;;;38.33;20.48;;;;;;;;;;5136229;28;20043;-85
2021/01/04 00:47:44;;;;;;;38.85;22.35;;;;;;;;;;5130045;28;20058;-85
2021/01/04 00:50:18;;;;;;;34.63;20.38;;;;;;;;;;5138902;28;20433;-85
2021/01/04 00:52:48;;;;;;;35.63;21.15;;;;;;;;;;5134668;28;20097;-85
2021/01/04 00:55:22;;;;;;;40.28;22.02;;;;;;;;;;5138993;28;20051;-85
2021/01/04 00:58:03;;;;;;;42.53;21.05;;;;;;;;;;5128128;28;20047;-84
2021/01/04 01:00:32;;;;;;;36.92;21.13;;;;;;;;;;5138520;27;20059;-85
2021/01/04 01:03:17;;;;;;;36.42;21.20;;;;;;;;;;5142645;27;20047;-86
2021/01/04 01:05:49;;;;;;;36.65;19.52;;;;;;;;;;5142434;27;20047;-86
2021/01/04 01:08:20;;;;;;;38.92;21.55;;;;;;;;;;5141701;27;20043;-85
2021/01/04 01:10:52;;;;;;;37.33;21.65;;;;;;;;;;5130731;27;20066;-85
2021/01/04 01:13:29;;;;;;;34.92;19.75;;;;;;;;;;5131985;27;20047;-86
2021/01/04 01:16:13;;;;;;;36.42;20.45;;;;;;;;;;5140346;27;20417;-85
2021/01/04 01:18:42;;;;;;;33.22;18.98;;;;;;;;;;5139075;27;20050;-85
2021/01/04 01:21:10;;;;;;;40.67;21.25;;;;;;;;;;5138399;27;20039;-85
2021/01/04 01:23:38;;;;;;;33.88;19.02;;;;;;;;;;5129244;27;20063;-86
2021/01/04 01:26:18;;;;;;;34.55;19.38;;;;;;;;;;5120131;28;20050;-86
2021/01/04 01:29:16;;;;;;;38.35;20.92;;;;;;;;;;5141600;27;20398;-86
2021/01/04 01:32:05;;;;;;;38.58;20.52;;;;;;;;;;5143028;27;20043;-85
2021/01/04 01:34:51;;;;;;;40.45;21.40;;;;;;;;;;5160906;27;20050;-86
2021/01/04 01:37:32;;;;;;;34.13;18.60;;;;;;;;;;5140576;27;20453;-86
2021/01/04 01:40:32;;;;;;;34.83;19.35;;;;;;;;;;5139222;27;20051;-86
2021/01/04 01:43:21;;;;;;;34.20;18.20;;;;;;;;;;5139224;27;20096;-86
2021/01/04 01:45:54;;;;;;;40.65;21.13;;;;;;;;;;5139280;27;20059;-86
2021/01/04 01:48:35;;;;;;;35.20;19.73;;;;;;;;;;5139788;27;20047;-85
2021/01/04 01:51:06;;;;;;;34.72;20.08;;;;;;;;;;5139219;27;20043;-85
2021/01/04 01:53:39;;;;;;;36.92;21.15;;;;;;;;;;5138795;27;20073;-86
2021/01/04 01:56:16;;;;;;;40.55;22.60;;;;;;;;;;5138954;27;20483;-86
2021/01/04 01:59:19;;;;;;;35.50;19.70;;;;;;;;;;5139485;27;20457;-86
2021/01/04 02:01:53;;;;;;;33.25;19.13;;;;;;;;;;5052598;27;20051;-88
2021/01/04 02:04:23;;;;;;;38.45;20.73;;;;;;;;;;5125345;22;20048;-85
2021/01/04 02:07:01;;;;;;;38.58;20.88;;;;;;;;;;5078545;28;20044;-84
2021/01/04 02:09:29;;;;;;;32.92;18.50;;;;;;;;;;5077992;28;20049;-84
2021/01/04 02:12:00;;;;;;;33.85;18.52;;;;;;;;;;5077714;28;20044;-84
2021/01/04 02:14:32;;;;;;;29.20;16.02;;;;;;;;;;5077715;28;20048;-84
2021/01/04 02:17:06;;;;;;;33.97;18.73;;;;;;;;;;5077742;28;20384;-84
2021/01/04 02:19:41;;;;;;;28.63;17.23;;;;;;;;;;5077201;28;20087;-84
2021/01/04 02:22:42;;;;;;;36.00;18.38;;;;;;;;;;5076723;28;20052;-84
2021/01/04 02:25:08;;;;;;;32.45;17.75;;;;;;;;;;5073817;28;20051;-84
2021/01/04 02:27:38;;;;;;;32.47;19.85;;;;;;;;;;5058414;28;20044;-84
2021/01/04 02:30:05;;;;;;;33.85;18.42;;;;;;;;;;5076046;28;20040;-84
2021/01/04 02:32:31;;;;;;;31.80;17.30;;;;;;;;;;5075882;28;20142;-84
2021/01/04 02:34:58;;;;;;;26.58;15.73;;;;;;;;;;5077006;28;20048;-84
2021/01/04 02:37:25;;;;;;;26.92;14.88;;;;;;;;;;5076349;28;20154;-84
2021/01/04 02:39:53;;;;;;;28.70;16.38;;;;;;;;;;5076301;28;20047;-84
2021/01/04 02:42:22;;;;;;;29.23;17.08;;;;;;;;;;5077032;28;20037;-85
2021/01/04 02:44:48;;;;;;;28.42;16.30;;;;;;;;;;5057864;28;20087;-84
2021/01/04 02:47:30;;;;;;;26.83;15.50;;;;;;;;;;5075571;28;20043;-84
2021/01/04 02:50:06;;;;;;;25.65;15.38;;;;;;;;;;5057415;28;20075;-84
2021/01/04 02:52:47;;;;;;;29.73;16.35;;;;;;;;;;5076627;28;20044;-84
2021/01/04 02:55:18;;;;;;;29.05;15.32;;;;;;;;;;5074702;28;20055;-84
2021/01/04 02:57:50;;;;;;;28.05;14.80;;;;;;;;;;5057719;28;20049;-84
2021/01/04 03:00:19;;;;;;;28.73;16.42;;;;;;;;;;5076073;28;20041;-84
2021/01/04 03:02:47;;;;;;;29.85;16.27;;;;;;;;;;5074460;28;20405;-85
2021/01/04 03:05:17;;;;;;;26.65;15.48;;;;;;;;;;5061422;28;20376;-84
2021/01/04 03:07:50;;;;;;;29.95;16.25;;;;;;;;;;5095649;28;20074;-84
2021/01/04 03:10:19;;;;;;;30.77;16.75;;;;;;;;;;5095896;28;20055;-84
2021/01/04 03:12:53;;;;;;;29.55;16.08;;;;;;;;;;5095271;28;20434;-84
2021/01/04 03:15:27;;;;;;;24.67;13.43;;;;;;;;;;5077834;28;20127;-84
2021/01/04 03:18:11;;;;;;;24.25;14.23;;;;;;;;;;5096157;28;20093;-84
2021/01/04 03:20:37;;;;;;;28.42;14.65;;;;;;;;;;5095882;28;20075;-84
2021/01/04 03:23:03;;;;;;;28.92;16.30;;;;;;;;;;5077009;28;20040;-84
2021/01/04 03:25:33;;;;;;;26.35;15.05;;;;;;;;;;5076985;28;20097;-84
2021/01/04 03:28:01;;;;;;;27.42;14.10;;;;;;;;;;5077046;28;20040;-85
2021/01/04 03:30:28;;;;;;;23.42;14.57;;;;;;;;;;5095515;28;20070;-84
2021/01/04 03:32:54;;;;;;;26.05;15.40;;;;;;;;;;5095453;28;20040;-84
2021/01/04 03:35:20;;;;;;;25.60;13.50;;;;;;;;;;5077683;28;20051;-84
2021/01/04 03:37:46;;;;;;;24.15;13.95;;;;;;;;;;5095786;28;20063;-84
2021/01/04 03:40:13;;;;;;;25.35;13.98;;;;;;;;;;5077210;28;20094;-84
2021/01/04 03:42:39;;;;;;;22.95;13.23;;;;;;;;;;5094879;28;20464;-84
2021/01/04 03:45:08;;;;;;;22.90;13.80;;;;;;;;;;5078147;28;20368;-84
2021/01/04 03:47:34;;;;;;;25.02;14.13;;;;;;;;;;5078527;28;20130;-84
2021/01/04 03:50:04;;;;;;;20.95;12.90;;;;;;;;;;5094590;28;20052;-84
2021/01/04 03:52:30;;;;;;;21.90;13.25;;;;;;;;;;5077969;28;20468;-84
2021/01/04 03:54:56;;;;;;;20.65;11.73;;;;;;;;;;5076860;28;20055;-84
2021/01/04 03:57:22;;;;;;;20.55;13.20;;;;;;;;;;5094340;28;20047;-84
2021/01/04 03:59:48;;;;;;;22.60;13.43;;;;;;;;;;5076840;28;20048;-84
2021/01/04 04:02:14;;;;;;;25.13;12.88;;;;;;;;;;5077830;28;20380;-84
2021/01/04 04:04:41;;;;;;;21.83;13.43;;;;;;;;;;5095116;28;20456;-84
2021/01/04 04:07:07;;;;;;;24.92;14.40;;;;;;;;;;5095092;28;20040;-84
2021/01/04 04:09:33;;;;;;;26.65;13.50;;;;;;;;;;5094727;28;20052;-85
2021/01/04 04:11:59;;;;;;;24.58;13.45;;;;;;;;;;5076231;28;20044;-84
2021/01/04 04:14:25;;;;;;;24.17;13.68;;;;;;;;;;5076467;28;20479;-84
2021/01/04 04:16:51;;;;;;;24.85;13.50;;;;;;;;;;5094660;28;20044;-84
2021/01/04 04:19:18;;;;;;;26.75;14.07;;;;;;;;;;5074604;28;20048;-84
2021/01/04 04:21:50;;;;;;;22.70;14.32;;;;;;;;;;5092851;28;20415;-84
2021/01/04 04:24:16;;;;;;;25.23;13.52;;;;;;;;;;5093985;28;20044;-86
2021/01/04 04:26:42;;;;;;;27.40;14.65;;;;;;;;;;5094018;28;20051;-85
2021/01/04 04:29:08;;;;;;;26.35;15.50;;;;;;;;;;5093674;28;20052;-87
2021/01/04 04:31:41;;;;;;;25.23;15.30;;;;;;;;;;5093575;28;20483;-87
2021/01/04 04:34:06;;;;;;;23.98;14.55;;;;;;;;;;5094462;28;20464;-84
2021/01/04 04:36:33;;;;;;;28.55;15.27;;;;;;;;;;5099455;28;20040;-84
2021/01/04 04:38:59;;;;;;;25.20;14.27;;;;;;;;;;5097290;28;20044;-85
2021/01/04 04:41:30;;;;;;;24.83;14.52;;;;;;;;;;5098089;28;20051;-85
2021/01/04 04:44:08;;;;;;;29.08;16.15;;;;;;;;;;5097341;28;20043;-87
2021/01/04 04:46:47;;;;;;;29.40;17.20;;;;;;;;;;5097379;28;20047;-85
2021/01/04 04:49:20;;;;;;;28.38;14.93;;;;;;;;;;5097378;28;20086;-85
2021/01/04 04:52:00;;;;;;;28.95;15.20;;;;;;;;;;5097111;28;20044;-86
2021/01/04 04:54:33;;;;;;;36.13;17.73;;;;;;;;;;5096870;28;20079;-86
2021/01/04 04:57:14;;;;;;;27.13;16.88;;;;;;;;;;5097119;28;20383;-86
2021/01/04 04:59:47;;;;;;;32.60;16.40;;;;;;;;;;5096643;28;20063;-85
2021/01/04 05:02:18;;;;;;;30.80;16.90;;;;;;;;;;5097084;28;20049;-85
2021/01/04 05:04:57;;;;;;;27.30;15.95;;;;;;;;;;5083804;28;20511;-85
2021/01/04 05:07:30;;;;;;;32.85;16.58;;;;;;;;;;5085950;28;20481;-86
2021/01/04 05:09:58;;;;;;;35.88;17.50;;;;;;;;;;5096457;28;20052;-85
2021/01/04 05:12:32;;;;;;;30.40;16.35;;;;;;;;;;5096935;28;20040;-85
2021/01/04 05:15:03;;;;;;;30.15;16.60;;;;;;;;;;5096906;28;20052;-85
2021/01/04 05:17:51;;;;;;;32.17;17.05;;;;;;;;;;5096843;28;20040;-85
2021/01/04 05:20:36;;;;;;;29.20;16.77;;;;;;;;;;5096537;28;20044;-85
2021/01/04 05:23:33;;;;;;;30.08;15.52;;;;;;;;;;5097004;28;20044;-84
2021/01/04 05:26:09;;;;;;;26.65;15.55;;;;;;;;;;5096621;28;20040;-86
2021/01/04 05:28:54;;;;;;;30.85;17.80;;;;;;;;;;5096081;28;20101;-85
2021/01/04 05:32:23;;;;;;;27.05;15.63;;;;;;;;;;5096626;28;20048;-87
2021/01/04 05:34:51;;;;;;;25.23;14.35;;;;;;;;;;4952225;29;20043;-86
2021/01/04 05:37:40;;;;;;;29.25;15.68;;;;;;;;;;4994116;28;20201;-87
2021/01/04 05:40:26;;;;;;;27.17;16.55;;;;;;;;;;5055416;28;20498;-85
2021/01/04 05:43:11;;;;;;;26.30;14.50;;;;;;;;;;5096293;28;20070;-85
2021/01/04 05:45:41;;;;;;;30.85;19.42;;;;;;;;;;5096162;28;20066;-87
2021/01/04 05:48:14;;;;;;;32.90;18.25;;;;;;;;;;5096074;28;20048;-85
2021/01/04 05:50:46;;;;;;;31.48;17.10;;;;;;;;;;5096237;28;20044;-84
2021/01/04 05:53:12;;;;;;;31.45;19.20;;;;;;;;;;5095379;28;20040;-85
2021/01/04 05:55:39;;;;;;;30.98;18.77;;;;;;;;;;5095328;28;20052;-85
2021/01/04 05:58:16;;;;;;;31.83;17.85;;;;;;;;;;5095904;28;20094;-84
2021/01/04 06:00:43;;;;;;;38.03;17.65;;;;;;;;;;5095583;28;20036;-85
2021/01/04 06:03:12;;;;;;;29.42;16.55;;;;;;;;;;5094737;28;20055;-85
2021/01/04 06:05:38;;;;;;;28.38;15.32;;;;;;;;;;5095926;28;20044;-85
2021/01/04 06:08:05;;;;;;;30.88;17.42;;;;;;;;;;5095078;28;20464;-85
2021/01/04 06:10:33;;;;;;;26.52;16.00;;;;;;;;;;5095595;28;20101;-85
2021/01/04 06:13:02;;;;;;;30.88;16.80;;;;;;;;;;5095511;28;20048;-85
2021/01/04 06:15:31;;;;;;;28.33;16.95;;;;;;;;;;5095309;28;20048;-86
2021/01/04 06:18:06;;;;;;;29.05;16.35;;;;;;;;;;5095456;28;20044;-85
2021/01/04 06:21:01;;;;;;;30.92;17.33;;;;;;;;;;5095628;28;20040;-89
2021/01/04 06:23:30;;;;;;;32.42;18.00;;;;;;;;;;5095454;28;20036;-87
2021/01/04 06:25:58;;;;;;;33.55;18.17;;;;;;;;;;5095189;28;20040;-85
2021/01/04 06:28:25;;;;;;;38.28;20.50;;;;;;;;;;5095520;28;20044;-85
2021/01/04 06:31:00;;;;;;;37.42;19.48;;;;;;;;;;5095223;28;20122;-84
2021/01/04 06:33:29;;;;;;;32.38;17.50;;;;;;;;;;5095632;28;20064;-85
2021/01/04 06:36:01;;;;;;;38.28;20.17;;;;;;;;;;5082613;28;20040;-87
2021/01/04 06:38:28;;;;;;;36.25;19.75;;;;;;;;;;5075336;28;20044;-85
2021/01/04 06:40:55;;;;;;;36.15;18.98;;;;;;;;;;5074743;28;20040;-85
2021/01/04 06:43:26;;;;;;;38.25;20.35;;;;;;;;;;5074890;28;20542;-85
2021/01/04 06:46:18;;;;;;;36.55;20.23;;;;;;;;;;5074068;28;20499;-85
2021/01/04 06:48:47;;;;;;;31.13;17.77;;;;;;;;;;5075495;28;20052;-84
2021/01/04 06:51:37;;;;;;;36.03;18.52;;;;;;;;;;5074734;28;20047;-87
2021/01/04 06:54:12;;;;;;;35.10;18.83;;;;;;;;;;5074558;28;20480;-86
2021/01/04 06:56:53;;;;;;;30.85;18.40;;;;;;;;;;5074629;28;20041;-85
2021/01/04 06:59:33;;;;;;;33.38;17.98;;;;;;;;;;5073890;28;20056;-85
2021/01/04 07:02:22;;;;;;;34.50;18.70;;;;;;;;;;5074401;28;20036;-85
2021/01/04 07:05:25;;;;;;;33.35;18.42;;;;;;;;;;5091057;28;20047;-84
2021/01/04 07:08:01;;;;;;;36.90;20.10;;;;;;;;;;5074108;28;20041;-84
2021/01/04 07:10:38;;;;;;;34.95;19.48;;;;;;;;;;5091643;28;20047;-85
2021/01/04 07:13:24;;;;;;;36.67;20.80;;;;;;;;;;5093971;28;20047;-84
2021/01/04 07:16:05;;;;;;;36.47;20.00;;;;;;;;;;5083508;28;20051;-85
2021/01/04 07:18:38;;;;;;;34.05;19.73;;;;;;;;;;5094287;28;20052;-85
2021/01/04 07:21:32;;;;;;;38.75;20.85;;;;;;;;;;5094127;28;20047;-84
2021/01/04 07:24:06;;;;;;;35.50;21.25;;;;;;;;;;5088040;28;20091;-85
2021/01/04 07:26:39;;;;;;;36.20;21.50;;;;;;;;;;5094067;28;20090;-85
2021/01/04 07:29:20;;;;;;;39.03;23.13;;;;;;;;;;5093928;28;20044;-85
2021/01/04 07:31:50;;;;;;;36.78;22.88;;;;;;;;;;5093547;28;20040;-85
2021/01/04 07:34:21;;;;;;;37.08;21.35;;;;;;;;;;5092187;28;20040;-84
2021/01/04 07:36:50;;;;;;;32.42;18.33;;;;;;;;;;5093455;28;20043;-85
2021/01/04 07:39:30;;;;;;;38.90;20.80;;;;;;;;;;5093639;28;20383;-85
2021/01/04 07:42:08;;;;;;;42.53;23.48;;;;;;;;;;5094028;28;20383;-85
2021/01/04 07:44:48;;;;;;;38.35;22.50;;;;;;;;;;5084306;28;20051;-85
2021/01/04 07:48:11;;;;;;;39.17;21.60;;;;;;;;;;5093468;28;20044;-84
2021/01/04 07:50:55;;;;;;;34.95;21.35;;;;;;;;;;5030766;28;20061;-85
2021/01/04 07:53:44;;;;;;;39.05;22.60;;;;;;;;;;5080527;28;20044;-85
2021/01/04 07:56:44;;;;;;;33.90;21.42;;;;;;;;;;5073336;28;20400;-85
2021/01/04 07:59:56;;;;;;;33.80;20.15;;;;;;;;;;5073279;28;20032;-87
2021/01/04 08:02:36;;;;;;;37.70;22.00;;;;;;;;;;5067020;28;20044;-85
2021/01/04 08:05:42;;;;;;;37.17;20.58;;;;;;;;;;5093284;28;20051;-87
2021/01/04 08:08:27;;;;;;;34.75;21.33;;;;;;;;;;5084740;28;20047;-85
2021/01/04 08:11:31;;;;;;;39.58;21.55;;;;;;;;;;5095943;28;20043;-86
2021/01/04 08:14:43;;;;;;;37.95;22.90;;;;;;;;;;5091735;28;20032;-84
2021/01/04 08:17:14;;;;;;;39.55;22.63;;;;;;;;;;5085010;28;20476;-85
2021/01/04 08:19:41;;;;;;;35.83;20.35;;;;;;;;;;5088307;28;20222;-87
2021/01/04 08:22:19;;;;;;;39.17;23.55;;;;;;;;;;5087655;28;20040;-86
2021/01/04 08:24:47;;;;;;;35.65;21.27;;;;;;;;;;5086219;28;20036;-85
2021/01/04 08:27:22;;;;;;;43.05;23.35;;;;;;;;;;5085191;28;20040;-87
2021/01/04 08:29:55;;;;;;;34.08;20.98;;;;;;;;;;5086166;28;20127;-85
2021/01/04 08:32:24;;;;;;;38.20;21.17;;;;;;;;;;5091516;28;20047;-85
2021/01/04 08:34:50;;;;;;;38.50;22.15;;;;;;;;;;5087035;28;20032;-85
2021/01/04 08:37:19;;;;;;;40.85;22.25;;;;;;;;;;5080666;28;20051;-85
2021/01/04 08:39:48;;;;;;;37.60;20.30;;;;;;;;;;5087152;28;20069;-85
2021/01/04 08:42:27;;;;;;;37.47;21.15;;;;;;;;;;5085358;28;20040;-87
2021/01/04 08:44:55;;;;;;;36.75;21.30;;;;;;;;;;5085790;28;20037;-85
2021/01/04 08:47:29;;;;;;;39.38;22.85;;;;;;;;;;5085580;28;20044;-85
2021/01/04 08:50:04;;;;;;;41.67;22.65;;;;;;;;;;5088604;28;20044;-87
2021/01/04 08:52:40;;;;;;;39.72;23.23;;;;;;;;;;5082259;28;20464;-84
2021/01/04 08:55:08;;;;;;;37.10;21.75;;;;;;;;;;5086743;28;20039;-85
2021/01/04 08:57:40;;;;;;;38.20;21.73;;;;;;;;;;5085222;28;20040;-85
2021/01/04 09:00:17;;;;;;;41.70;22.95;;;;;;;;;;5085017;28;20047;-84
2021/01/04 09:02:44;;;;;;;43.83;25.48;;;;;;;;;;5085666;28;20368;-85
2021/01/04 09:05:13;;;;;;;39.58;23.40;;;;;;;;;;5083615;28;20531;-85
2021/01/04 09:07:47;;;;;;;39.22;22.05;;;;;;;;;;5067716;28;20047;-85
2021/01/04 09:10:21;;;;;;;40.78;23.08;;;;;;;;;;5085407;28;20052;-87
2021/01/04 09:12:50;;;;;;;39.72;22.48;;;;;;;;;;5085088;28;20037;-85
2021/01/04 09:15:28;;;;;;;41.63;23.60;;;;;;;;;;5089261;28;20044;-86
2021/01/04 09:18:23;;;;;;;44.00;25.77;;;;;;;;;;5089653;28;20044;-86
2021/01/04 09:20:53;;;;;;;50.83;26.85;;;;;;;;;;5073609;28;20036;-87
2021/01/04 09:23:30;;;;;;;46.45;25.15;;;;;;;;;;5090843;28;20036;-85
2021/01/04 09:26:08;;;;;;;41.72;26.08;;;;;;;;;;5086818;28;20088;-86
2021/01/04 09:28:37;;;;;;;45.72;24.08;;;;;;;;;;5077393;28;20051;-84
2021/01/04 09:31:04;;;;;;;49.17;27.52;;;;;;;;;;5087971;28;20098;-84
2021/01/04 09:33:30;;;;;;;46.50;24.95;;;;;;;;;;5093383;28;20036;-84
2021/01/04 09:36:02;;;;;;;46.60;26.88;;;;;;;;;;5085330;28;20044;-82
2021/01/04 09:38:28;;;;;;;43.00;25.42;;;;;;;;;;5093727;28;20394;-83
2021/01/04 09:40:55;;;;;;;49.55;27.52;;;;;;;;;;5079040;28;20047;-84
2021/01/04 09:43:24;;;;;;;44.50;24.13;;;;;;;;;;5098827;28;20040;-84
2021/01/04 09:45:51;;;;;;;44.95;24.38;;;;;;;;;;5098517;28;20040;-84
2021/01/04 09:48:24;;;;;;;48.05;25.83;;;;;;;;;;5098946;28;20518;-84
2021/01/04 09:50:54;;;;;;;47.13;24.45;;;;;;;;;;5098130;28;20048;-84
2021/01/04 09:53:24;;;;;;;42.38;23.20;;;;;;;;;;5099607;28;20047;-84
2021/01/04 09:55:51;;;;;;;37.90;22.80;;;;;;;;;;5086387;28;20047;-84
2021/01/04 09:58:20;;;;;;;45.45;24.08;;;;;;;;;;5073660;28;20098;-83
2021/01/04 10:00:47;;;;;;;39.95;23.60;;;;;;;;;;5098563;28;20074;-83
2021/01/04 10:03:16;;;;;;;42.30;22.95;;;;;;;;;;5098228;28;20044;-84
2021/01/04 10:05:43;;;;;;;42.70;24.13;;;;;;;;;;5091334;28;20040;-83
2021/01/04 10:08:11;;;;;;;43.85;22.27;;;;;;;;;;5095112;28;20071;-83
2021/01/04 10:10:41;;;;;;;43.60;23.35;;;;;;;;;;5085703;28;20050;-86
2021/01/04 10:13:12;;;;;;;37.67;22.70;;;;;;;;;;5084950;28;20067;-90
2021/01/04 10:15:38;;;;;;;36.50;21.13;;;;;;;;;;5073365;28;20044;-85
2021/01/04 10:18:13;;;;;;;37.38;22.77;;;;;;;;;;5100812;28;20040;-85
2021/01/04 10:20:42;;;;;;;45.70;23.35;;;;;;;;;;5094647;28;20032;-88
2021/01/04 10:23:09;;;;;;;41.95;21.85;;;;;;;;;;5084709;28;20044;-85
2021/01/04 10:25:38;;;;;;;43.38;23.50;;;;;;;;;;5069254;28;20036;-84
2021/01/04 10:28:04;;;;;;;44.08;22.48;;;;;;;;;;5089083;28;20040;-86
2021/01/04 10:30:31;;;;;;;41.30;21.33;;;;;;;;;;5093879;28;20052;-87
2021/01/04 10:33:06;;;;;;;39.03;21.27;;;;;;;;;;5074250;28;20048;-86
2021/01/04 10:35:33;;;;;;;37.75;23.20;;;;;;;;;;5084156;28;20127;-89
2021/01/04 10:38:09;;;;;;;40.03;22.33;;;;;;;;;;5073953;28;20044;-85
2021/01/04 10:40:43;;;;;;;;;;;;;;;;;;5087586;28;20043;-83
2021/01/04 10:43:09;;;;;;;39.30;21.17;;;;;;;;;;5093652;28;19920;-85
2021/01/04 10:45:38;;;;;;;39.30;22.35;;;;;;;;;;5095525;28;20036;-83
2021/01/04 10:48:12;;;;;;;40.28;22.15;;;;;;;;;;5081838;28;20050;-83
2021/01/04 10:50:39;;;;;;;41.78;21.67;;;;;;;;;;5068719;28;20082;-82
2021/01/04 10:53:08;;;;;;;42.00;21.05;;;;;;;;;;5093970;28;20048;-82
2021/01/04 10:55:38;;;;;;;39.63;21.23;;;;;;;;;;5089459;28;20039;-84
2021/01/04 10:58:14;;;;;;;42.10;24.02;;;;;;;;;;5091839;28;20094;-81
2021/01/04 11:00:48;;;;;;;39.40;21.88;;;;;;;;;;5074360;28;20040;-81
2021/01/04 11:03:17;;;;;;;41.03;21.38;;;;;;;;;;5076429;28;20052;-81
2021/01/04 11:05:47;;;;;;;34.33;20.25;;;;;;;;;;5076583;28;20047;-82
2021/01/04 11:08:27;;;;;;;42.97;21.48;;;;;;;;;;5075935;28;20384;-82
2021/01/04 11:10:57;;;;;;;36.78;21.75;;;;;;;;;;5075560;28;20484;-82
2021/01/04 11:13:28;;;;;;;38.88;22.20;;;;;;;;;;5075992;28;20044;-80
2021/01/04 11:16:06;;;;;;;34.40;20.05;;;;;;;;;;5075629;28;20040;-84
2021/01/04 11:18:33;;;;;;;38.08;21.33;;;;;;;;;;5076533;28;20045;-84
2021/01/04 11:20:59;;;;;;;39.42;20.67;;;;;;;;;;5075282;28;20477;-85
2021/01/04 11:23:25;;;;;;;38.88;20.50;;;;;;;;;;5057587;28;20427;-85
2021/01/04 11:25:51;;;;;;;40.03;21.50;;;;;;;;;;5076343;28;20119;-84
2021/01/04 11:28:24;;;;;;;33.13;19.08;;;;;;;;;;5075939;28;20040;-84
2021/01/04 11:30:50;;;;;;;37.58;19.98;;;;;;;;;;5059379;28;20134;-83
2021/01/04 11:33:17;;;;;;;40.00;20.08;;;;;;;;;;5075296;28;20041;-84
2021/01/04 11:43:09;;;;;;;33.95;18.85;;;;;;;;;;5074404;28;20468;-83
2021/01/04 11:45:36;;;;;;;40.03;22.52;;;;;;;;;;5074690;28;20094;-85
2021/01/04 11:48:02;;;;;;;33.70;18.25;;;;;;;;;;5041370;28;20143;-86
2021/01/04 11:50:28;;;;;;;35.90;19.80;;;;;;;;;;5074556;28;20052;-86
2021/01/04 11:52:56;;;;;;;39.15;20.02;;;;;;;;;;5075269;28;20095;-86
2021/01/04 11:55:22;;;;;;;41.08;21.17;;;;;;;;;;5074207;28;20044;-86
2021/01/04 11:57:48;;;;;;;37.13;19.45;;;;;;;;;;5041579;28;20056;-86
2021/01/04 12:00:17;;;;;;;38.42;19.83;;;;;;;;;;5076376;28;20052;-86
2021/01/04 12:02:45;;;;;;;44.67;23.33;;;;;;;;;;5041819;28;20079;-90
2021/01/04 12:05:13;;;;;;;35.58;20.55;;;;;;;;;;5057893;28;20052;-90
2021/01/04 12:07:40;;;;;;;33.05;21.17;;;;;;;;;;5057421;28;20071;-88
2021/01/04 12:10:09;;;;;;;32.63;18.15;;;;;;;;;;5074853;28;20045;-88
2021/01/04 12:12:35;;;;;;;31.38;18.92;;;;;;;;;;5057615;28;20421;-88
2021/01/04 12:15:02;;;;;;;35.83;22.13;;;;;;;;;;5058407;28;20048;-88
2021/01/04 12:17:29;;;;;;;31.02;17.38;;;;;;;;;;5041952;28;20049;-88
2021/01/04 12:19:56;;;;;;;34.08;17.98;;;;;;;;;;5076194;28;20044;-89
2021/01/04 12:22:25;;;;;;;33.53;19.05;;;;;;;;;;5058059;28;20052;-89
2021/01/04 12:24:52;;;;;;;32.30;17.65;;;;;;;;;;5075430;28;20040;-88
2021/01/04 12:27:18;;;;;;;31.02;18.13;;;;;;;;;;5023959;28;20043;-88
2021/01/04 12:29:45;;;;;;;31.65;17.85;;;;;;;;;;5096748;28;20040;-87
2021/01/04 12:32:16;;;;;;;31.63;18.35;;;;;;;;;;5096674;28;20051;-87
2021/01/04 12:34:43;;;;;;;32.28;20.38;;;;;;;;;;5097115;28;20044;-87
2021/01/04 12:37:10;;;;;;;34.47;19.40;;;;;;;;;;5098690;28;20052;-87
2021/01/04 12:39:36;;;;;;;33.80;18.17;;;;;;;;;;5097032;28;20386;-88
2021/01/04 12:42:03;;;;;;;30.50;18.38;;;;;;;;;;5097390;28;20361;-87
2021/01/04 12:44:29;;;;;;;35.88;20.67;;;;;;;;;;5078192;28;20047;-87
2021/01/04 12:46:55;;;;;;;34.08;19.45;;;;;;;;;;5060886;28;20051;-88
2021/01/04 12:49:26;;;;;;;38.17;20.65;;;;;;;;;;5096910;28;20050;-88
2021/01/04 12:51:54;;;;;;;35.47;19.83;;;;;;;;;;5095795;28;20036;-88
2021/01/04 12:54:23;;;;;;;33.40;19.13;;;;;;;;;;5077714;28;20044;-87
2021/01/04 12:56:51;;;;;;;38.88;21.30;;;;;;;;;;5063848;28;20044;-87
2021/01/04 12:59:18;;;;;;;34.38;20.13;;;;;;;;;;5099602;28;20434;-86
2021/01/04 13:01:46;;;;;;;36.47;19.48;;;;;;;;;;5100088;28;20134;-86
2021/01/04 13:04:12;;;;;;;37.70;20.40;;;;;;;;;;5099208;28;20541;-87
2021/01/04 13:06:38;;;;;;;36.45;19.70;;;;;;;;;;5099472;28;20047;-87
2021/01/04 13:09:07;;;;;;;40.22;19.83;;;;;;;;;;5099218;28;20052;-86
2021/01/04 13:11:33;;;;;;;44.17;23.58;;;;;;;;;;5065399;28;20047;-87
2021/01/04 13:14:00;;;;;;;34.33;19.08;;;;;;;;;;5100166;28;20126;-87
2021/01/04 13:16:33;;;;;;;37.28;19.42;;;;;;;;;;5081495;28;20098;-86
2021/01/04 13:18:59;;;;;;;37.92;20.50;;;;;;;;;;5083935;28;20062;-84
2021/01/04 13:21:25;;;;;;;40.75;20.77;;;;;;;;;;5084351;28;20036;-85
2021/01/04 13:23:51;;;;;;;38.88;18.77;;;;;;;;;;5102423;28;20047;-85
2021/01/04 13:26:18;;;;;;;42.83;21.25;;;;;;;;;;5085060;28;20094;-85
2021/01/04 13:28:46;;;;;;;34.80;19.08;;;;;;;;;;5102913;28;20048;-85
2021/01/04 13:31:11;;;;;;;40.55;19.95;;;;;;;;;;5103086;28;20044;-85
2021/01/04 13:33:38;;;;;;;42.10;21.48;;;;;;;;;;5101795;28;20093;-85
2021/01/04 13:36:07;;;;;;;40.47;19.40;;;;;;;;;;5103113;28;20048;-85
2021/01/04 13:38:34;;;;;;;40.75;21.27;;;;;;;;;;5102949;28;20087;-84
2021/01/04 13:41:00;;;;;;;40.33;19.48;;;;;;;;;;5082674;28;20078;-87
2021/01/04 13:43:28;;;;;;;39.30;20.10;;;;;;;;;;5100833;28;20072;-87
2021/01/04 13:45:54;;;;;;;42.60;21.45;;;;;;;;;;5083443;28;20476;-86
2021/01/04 13:48:20;;;;;;;38.65;20.40;;;;;;;;;;5065757;28;20498;-86
2021/01/04 13:50:46;;;;;;;42.25;20.25;;;;;;;;;;5100526;28;20079;-87
2021/01/04 13:53:13;;;;;;;45.85;21.73;;;;;;;;;;5045942;28;20048;-87
2021/01/04 13:55:41;;;;;;;43.85;21.40;;;;;;;;;;5096318;28;20052;-87
2021/01/04 13:58:13;;;;;;;41.17;22.55;;;;;;;;;;5097247;28;20153;-88
2021/01/04 14:00:43;;;;;;;44.95;22.23;;;;;;;;;;5079515;28;20531;-87
2021/01/04 14:03:10;;;;;;;40.22;21.73;;;;;;;;;;5096643;28;20064;-88
2021/01/04 14:05:36;;;;;;;40.22;22.98;;;;;;;;;;5101274;28;20051;-86
2021/01/04 14:08:02;;;;;;;46.22;22.83;;;;;;;;;;5083053;28;20040;-86
2021/01/04 14:10:30;;;;;;;43.28;22.05;;;;;;;;;;5098431;28;20103;-88
2021/01/04 14:12:56;;;;;;;42.40;22.60;;;;;;;;;;5099342;28;20131;-86
2021/01/04 14:15:24;;;;;;;41.22;21.95;;;;;;;;;;5097558;28;20098;-89
2021/01/04 14:17:50;;;;;;;45.05;23.55;;;;;;;;;;5097031;28;20048;-87
2021/01/04 14:20:17;;;;;;;41.42;24.00;;;;;;;;;;5098648;28;20044;-87
2021/01/04 14:22:43;;;;;;;51.28;28.42;;;;;;;;;;5080483;28;20044;-85
2021/01/04 14:25:10;;;;;;;49.58;27.13;;;;;;;;;;5065379;28;20094;-87
2021/01/04 14:27:36;;;;;;;55.33;27.85;;;;;;;;;;5098129;28;20094;-86
2021/01/04 14:30:05;;;;;;;51.92;30.27;;;;;;;;;;5099593;28;20430;-87
2021/01/04 14:32:31;;;;;;;46.75;23.67;;;;;;;;;;5098701;28;20040;-87
2021/01/04 14:34:58;;;;;;;42.53;24.02;;;;;;;;;;5080571;28;20044;-88
2021/01/04 14:37:25;;;;;;;48.13;25.00;;;;;;;;;;5082131;28;20048;-87
2021/01/04 14:39:51;;;;;;;46.05;24.80;;;;;;;;;;5080123;28;20051;-86
2021/01/04 14:42:19;;;;;;;47.30;24.92;;;;;;;;;;5099614;28;20040;-86
2021/01/04 14:44:45;;;;;;;51.15;25.33;;;;;;;;;;5064751;28;20044;-87
2021/01/04 14:47:11;;;;;;;50.40;27.50;;;;;;;;;;5099612;28;20138;-84
2021/01/04 14:53:03;;;;;;;43.17;23.10;;;;;;;;;;5095626;28;20518;-89
2021/01/04 14:55:29;;;;;;;43.63;23.20;;;;;;;;;;5077809;28;20055;-89
2021/01/04 14:57:55;;;;;;;45.80;23.45;;;;;;;;;;5096374;28;20044;-87
2021/01/04 15:00:22;;;;;;;49.67;25.23;;;;;;;;;;5061174;28;20067;-87